72.5F
Current conditions from King Hill
Updated every 5 minutes
 
  Friday May 14, 2021

Observations for Westford

Westford

44° 37' 38"N, 73° 02' 29"W, Elevation 850 ft.
Eastern Time

Hourly observations for the last 72 hours

Date Time Temperature (°F) Humi-
dity

(%)
Wind
(mph)
Pressure Rain (in)
Air Dew 6 Hour 1 Hr 3 Hr 6 Hr Day
Alt
(in)
Sea
Level

(mb)
Max Min
14 13:00 72.4 40.1 31 WNW 6 G 12 30.10 1019.4 0.00
14 12:00 70.3 39.9 33 WSW 9 G 13 30.12 1019.9 0.00
14 11:00 67.4 40.2 37 SSW 3 G 10 30.13 1020.3 0.00
14 10:00 65.1 40.8 41 S 5 G 9 30.13 1020.5 0.00
14 09:00 61.2 41.9 49 S 2 G 8 30.14 1020.7 0.00
14 08:00 57.2 43.9 57.2 41.3 61 S 4 G 7 30.14 1020.8 0.00
14 07:00 48.6 41.4 76 S 2 G 6 30.14 1020.6 0.00
14 06:00 41.6 38.6 89 S 2 G 4 30.12 1020.1 0.00
14 05:00 42.1 37.6 84 S 2 G 5 30.12 1019.9 0.00
14 04:00 44.9 38.1 77 SSE 1 G 5 30.11 1019.8 0.00
14 03:00 43.3 38.5 83 Calm 30.12 1020.0 0.00
14 02:00 45.9 38.8 58.7 45.9 76 Calm 30.12 1020.1 0.00
14 01:00 49.7 38.4 65 Calm 30.13 1020.2 0.00
14 00:00 52.7 40.5 63 NNW 0 G 8 30.12 1020.0 0.00
13 23:00 51.0 37.2 59 Calm 30.11 1019.6 0.00
13 22:00 52.1 36.4 55 Calm 30.11 1019.6 0.00
13 21:00 53.4 36.2 52 Calm 30.10 1019.2 0.00
13 20:00 58.7 39.1 68.5 58.7 48 Calm 30.09 1018.9 0.00
13 19:00 65.7 36.6 34 WSW 0 G 8 30.09 1018.9 0.00
13 18:00 67.0 33.7 29 WNW 3 G 10 30.09 1018.9 0.00
13 17:00 67.0 34.6 30 W 6 G 13 30.09 1019.1 0.00
13 16:00 67.4 35.7 31 WNW 4 G 12 30.11 1019.7 0.00
13 15:00 66.4 37.9 35 W 7 G 20 30.13 1020.5 0.00
13 14:00 65.0 38.1 65.0 52.5 37 W 5 G 16 30.15 1021.0 0.00
13 13:00 64.0 32.8 31 WNW 4 G 16 30.16 1021.4 0.00
13 12:00 63.2 33.6 33 WNW 4 G 11 30.17 1021.8 0.00
13 11:00 60.3 35.9 40 WSW 6 G 13 30.18 1022.1 0.00
13 10:00 57.6 37.0 46 WSW 0 G 4 30.18 1022.1 0.00
13 09:00 55.6 33.5 43 W 1 G 4 30.18 1022.1 0.00
13 08:00 52.5 38.6 52.5 36.2 59 Calm 30.17 1021.9 0.00
13 07:00 40.0 34.6 81 Calm 30.16 1021.5 0.00
13 06:00 36.4 32.9 87 Calm 30.15 1021.0 0.00
13 05:00 39.3 34.0 81 Calm 30.14 1020.6 0.00
13 04:00 41.5 35.2 78 Calm 30.13 1020.4 0.00
13 03:00 44.4 35.9 72 S 0 G 4 30.13 1020.3 0.00
13 02:00 45.9 37.0 52.1 44.4 71 S 0 G 3 30.13 1020.4 0.00
13 01:00 45.6 36.0 69 S 1 G 6 30.13 1020.4 0.00
13 00:00 45.1 35.5 69 S 1 G 4 30.12 1020.1 0.12
12 23:00 48.6 40.3 73 S 0 G 4 30.12 1020.1 0.12
12 22:00 50.0 36.2 59 W 4 G 14 30.13 1020.2 0.12
12 21:00 49.7 39.2 67 Calm 30.12 1020.0 0.12
12 20:00 52.1 40.3 61.5 52.0 64 W 0 G 1 30.11 1019.6 0.12
12 19:00 56.2 37.8 50 W 1 G 8 30.09 1019.2 0.12
12 18:00 57.9 35.5 43 NNW 1 G 8 30.09 1018.9 0.12
12 17:00 60.5 36.1 40 W 3 G 8 30.08 1018.8 0.12
12 16:00 57.5 39.0 50 W 6 G 15 30.08 1018.6 0.12
12 15:00 57.1 36.5 46 WNW 3 G 15 30.08 1018.7 0.12
12 14:00 53.3 39.3 59.6 43.6 59 WSW 10 G 15 30.09 1018.9 0.12
12 13:00 57.8 40.8 53 W 10 G 17 30.08 1018.7 0.12
12 12:00 54.6 41.0 60 W 6 G 13 30.08 1018.8 0.12
12 11:00 53.0 44.2 72 W 4 G 11 30.08 1018.6 0.12
12 10:00 48.9 42.3 78 W 2 G 9 30.07 1018.3 0.12
12 09:00 45.9 43.1 90 WSW 1 G 8 30.06 1017.9 0.12
12 08:00 43.6 42.3 43.6 38.8 95 W 0 G 4 30.04 1017.3 0.02 0.12
12 07:00 42.1 41.0 96 SW 0 G 3 30.02 1016.6 0.12
12 06:00 40.8 39.7 96 Calm 29.99 1015.7 0.12
12 05:00 40.5 39.2 95 Calm 29.97 1014.9 0.02 0.12
12 04:00 39.7 38.4 95 SW 1 G 4 29.95 1014.3 0.01 0.12
12 03:00 39.0 37.7 95 SSW 1 G 6 29.94 1013.8 0.01 0.11
12 02:00 39.0 37.4 42.2 39.0 94 SW 5 G 11 29.93 1013.6 0.04 0.15 0.17 0.10
12 01:00 39.5 37.9 94 SW 2 G 5 29.93 1013.6 0.06 0.06
12 00:00 40.4 38.5 93 WSW 4 G 8 29.93 1013.6 0.05 0.19
11 23:00 41.1 38.1 89 SSW 5 G 10 29.92 1013.2 0.01 0.02 0.14
11 22:00 41.4 37.8 87 SSW 7 G 14 29.93 1013.5 0.13
11 21:00 41.6 38.6 89 SSW 3 G 12 29.93 1013.5 0.01 0.13
11 20:00 42.2 38.9 53.9 42.2 88 SW 5 G 11 29.92 1013.2 0.05 0.12 0.12 0.12
11 19:00 43.2 39.6 87 SW 1 G 6 29.91 1012.7 0.01 0.07
11 18:00 43.3 38.5 83 SW 4 G 11 29.89 1012.4 0.06 0.06
11 17:00 52.5 32.9 47 WSW 7 G 13 29.86 1011.2 0.00
11 16:00 52.6 33.5 48 W 7 G 15 29.85 1011.0 0.00
11 15:00 53.0 32.2 45 W 2 G 12 29.86 1011.2 0.00
11 14:00 50.2 35.1 55.3 44.9 56 WSW 9 G 18 29.87 1011.6 0.00

Data generated by WxSolution Version 1.9.1.7, Build 2018.11.24.


 
 
Current Radar Loop:

Copyright © WestfordWeather.net 2007-2021. All rights reserved.